createdAt,value
2023-05-16T04:34:39.639Z,12.60
2023-05-16T04:37:08.578Z,16.80
2023-05-16T04:39:36.748Z,16.40
2023-05-16T04:42:04.530Z,11.70
2023-05-16T04:44:31.821Z,11.10
2023-05-16T04:46:58.924Z,8.80
2023-05-16T04:49:26.282Z,14.90
2023-05-16T04:51:53.457Z,15.00
2023-05-16T04:54:20.375Z,14.50
2023-05-16T04:56:47.341Z,27.70
2023-05-16T04:59:14.327Z,16.70
2023-05-16T05:01:41.385Z,14.80
2023-05-16T05:04:08.424Z,29.10
2023-05-16T05:06:35.369Z,28.40
2023-05-16T05:09:02.273Z,21.50
2023-05-16T05:11:29.144Z,24.30
2023-05-16T05:13:56.016Z,22.80
2023-05-16T05:16:23.347Z,23.10
2023-05-16T05:18:50.697Z,21.80
2023-05-16T05:21:20.491Z,21.10
2023-05-16T05:23:51.451Z,15.50
2023-05-16T05:26:19.486Z,19.00
2023-05-16T05:29:03.976Z,15.40
2023-05-16T05:31:33.838Z,12.90
2023-05-16T05:38:02.999Z,18.30
2023-05-16T05:49:27.401Z,10.50
2023-05-16T05:53:01.082Z,12.50
2023-05-16T05:59:17.757Z,13.50
2023-05-16T06:02:56.852Z,10.00
2023-05-16T06:05:32.975Z,13.40
2023-05-16T06:08:02.066Z,11.20
2023-05-16T06:10:33.013Z,15.80
2023-05-16T06:13:03.674Z,17.90
2023-05-16T06:15:32.231Z,18.30
2023-05-16T06:18:05.856Z,12.30
2023-05-16T06:20:48.456Z,15.20
2023-05-16T06:30:05.106Z,15.10
2023-05-16T06:32:57.543Z,16.80
2023-05-16T06:35:43.236Z,20.10
2023-05-16T06:38:10.346Z,16.90
2023-05-16T06:40:37.718Z,15.50
2023-05-16T06:43:05.289Z,12.90
2023-05-16T06:45:32.906Z,12.10
2023-05-16T06:48:00.123Z,16.70
2023-05-16T06:50:27.475Z,13.50
2023-05-16T06:52:56.758Z,22.00
2023-05-16T06:55:24.405Z,17.40
2023-05-16T06:57:52.114Z,13.40
2023-05-16T07:00:19.847Z,8.00
2023-05-16T07:02:47.260Z,11.70
2023-05-16T07:05:14.381Z,9.40
2023-05-16T07:08:30.202Z,14.80
2023-05-16T07:11:21.962Z,11.60
2023-05-16T07:14:13.398Z,19.30
2023-05-16T07:17:13.194Z,12.50
2023-05-16T07:20:42.324Z,11.40
2023-05-16T07:23:57.316Z,8.70
2023-05-16T07:26:29.307Z,13.70
2023-05-16T07:28:58.133Z,17.60
2023-05-16T07:31:26.903Z,15.50
2023-05-16T07:33:54.069Z,16.50
2023-05-16T07:36:21.445Z,14.90
2023-05-16T07:38:48.460Z,14.90
2023-05-16T07:41:15.434Z,10.00
2023-05-16T07:43:42.562Z,13.70
2023-05-16T07:46:10.395Z,17.50
2023-05-16T07:48:41.195Z,22.00
2023-05-16T07:51:09.435Z,14.20
2023-05-16T07:53:36.703Z,19.20
2023-05-16T07:56:05.856Z,29.10
2023-05-16T07:58:36.472Z,30.20
2023-05-16T08:01:03.805Z,24.30
2023-05-16T08:03:37.959Z,17.00
2023-05-16T08:06:21.653Z,13.40
2023-05-16T08:09:33.781Z,9.30
2023-05-16T08:20:20.456Z,10.80
2023-05-16T08:24:08.437Z,20.40
2023-05-16T08:27:30.259Z,16.10
2023-05-16T08:30:35.097Z,16.10
2023-05-16T08:33:05.130Z,14.90
2023-05-16T08:35:32.741Z,11.50
2023-05-16T08:38:00.892Z,15.20
2023-05-16T08:40:28.656Z,10.00
2023-05-16T08:43:01.652Z,14.10
2023-05-16T08:46:32.032Z,12.20
2023-05-16T08:58:05.293Z,13.20
2023-05-16T09:05:03.580Z,13.80
2023-05-16T09:08:43.988Z,8.50
2023-05-16T09:15:53.263Z,8.30
2023-05-16T09:18:45.516Z,11.00
2023-05-16T09:21:19.182Z,10.20
2023-05-16T09:23:46.647Z,11.90
2023-05-16T09:26:20.013Z,3.90
2023-05-16T09:29:19.724Z,13.90
2023-05-16T09:33:08.061Z,11.10
2023-05-16T09:39:58.433Z,6.60
2023-05-16T09:42:34.070Z,4.40
2023-05-16T09:45:12.205Z,10.10
2023-05-16T09:47:46.141Z,9.40
2023-05-16T09:50:17.405Z,5.10
2023-05-16T09:52:46.555Z,11.30
2023-05-16T09:55:17.487Z,9.50
2023-05-16T09:57:45.181Z,7.50
2023-05-16T10:00:13.770Z,9.10
2023-05-16T10:02:40.845Z,4.90
2023-05-16T10:05:08.343Z,6.60
2023-05-16T10:07:35.676Z,10.00
2023-05-16T10:10:08.613Z,8.50
2023-05-16T10:12:35.868Z,4.10
2023-05-16T10:15:03.352Z,5.40
2023-05-16T10:17:32.554Z,3.30
2023-05-16T10:20:05.930Z,5.90
2023-05-16T10:22:36.162Z,7.20
2023-05-16T10:25:10.619Z,12.60
2023-05-16T10:27:37.642Z,7.20
2023-05-16T10:30:05.937Z,7.00
2023-05-16T10:32:32.992Z,7.60
2023-05-16T10:35:03.340Z,5.70
2023-05-16T10:37:31.291Z,11.20
2023-05-16T10:40:00.081Z,7.20
2023-05-16T10:42:27.033Z,12.50
2023-05-16T10:45:05.026Z,5.90
2023-05-16T10:47:33.157Z,6.60
2023-05-16T10:50:00.191Z,9.30
2023-05-16T10:52:33.902Z,7.00
2023-05-16T10:55:02.926Z,5.80
2023-05-16T10:57:29.852Z,5.10
2023-05-16T11:00:01.820Z,12.30
2023-05-16T11:02:33.862Z,9.80
2023-05-16T11:05:02.088Z,8.30
2023-05-16T11:07:36.755Z,4.70
2023-05-16T11:10:11.668Z,18.30
2023-05-16T11:12:45.477Z,8.80
2023-05-16T11:15:24.892Z,12.90
2023-05-16T11:18:07.984Z,5.60
2023-05-16T11:20:36.430Z,6.00
2023-05-16T11:23:16.855Z,3.70
2023-05-16T11:25:45.806Z,6.30
2023-05-16T11:28:13.654Z,5.40
2023-05-16T11:30:44.837Z,9.80
2023-05-16T11:33:13.533Z,10.60
2023-05-16T11:35:40.655Z,13.10
2023-05-16T11:38:12.692Z,13.00
2023-05-16T11:40:43.004Z,5.30
2023-05-16T11:43:10.084Z,10.50
2023-05-16T11:45:37.498Z,9.90
2023-05-16T11:48:04.782Z,13.40
2023-05-16T11:50:34.204Z,12.10
2023-05-16T11:53:01.611Z,8.40
2023-05-16T11:55:41.005Z,8.60
2023-05-16T11:58:08.618Z,14.00
2023-05-16T12:00:35.877Z,8.20
2023-05-16T12:03:05.255Z,9.30
2023-05-16T12:05:34.317Z,7.80
2023-05-16T12:08:03.715Z,7.70
2023-05-16T12:10:31.583Z,12.40
2023-05-16T12:12:58.482Z,11.60
2023-05-16T12:15:25.774Z,13.30
2023-05-16T12:17:53.090Z,10.20
2023-05-16T12:20:20.265Z,15.10
2023-05-16T12:22:47.325Z,4.30
2023-05-16T12:25:32.279Z,10.50
2023-05-16T12:28:02.447Z,6.80
2023-05-16T12:30:31.930Z,7.20
2023-05-16T12:33:08.009Z,7.40
2023-05-16T12:35:37.559Z,4.70
2023-05-16T12:38:08.722Z,7.30
2023-05-16T12:40:42.473Z,13.50
2023-05-16T12:43:15.591Z,5.20
2023-05-16T12:45:43.496Z,6.30
2023-05-16T12:48:14.233Z,9.90
2023-05-16T12:50:41.949Z,4.90
2023-05-16T12:53:18.388Z,9.60
2023-05-16T12:55:45.454Z,5.00
2023-05-16T12:58:12.656Z,8.90
2023-05-16T13:00:39.984Z,10.30
2023-05-16T13:03:08.036Z,4.70
2023-05-16T13:05:36.557Z,5.00
2023-05-16T13:08:04.356Z,7.40
2023-05-16T13:10:31.430Z,4.90
2023-05-16T13:13:01.209Z,3.60
2023-05-16T13:15:28.643Z,5.00
2023-05-16T13:17:56.260Z,8.30
2023-05-16T13:20:23.658Z,8.50
